Time;durP1;ratioP1;P1;durP2;ratioP2;P2;SDS_P1;SDS_P2;PMS_P1;PMS_P2;Temp;Humidity;BMP_temperature;BMP_pressure;BME280_temperature;BME280_humidity;BME280_pressure;Samples;Min_cycle;Max_cycle;Signal;HPM_P1;HPM_P2
2022/04/15 00:02:09;;;;;;;;;;;;;;;;;;5008729;28;20292;-60
2022/04/15 00:04:35;;;;;;;;;;;;;;;;;;5005235;28;19909;-60
2022/04/15 00:07:00;;;;;;;;;;;;;;;;;;5012555;28;20297;-60
2022/04/15 00:09:26;;;;;;;;;;;;;;;;;;5007441;28;19917;-61
2022/04/15 00:11:53;;;;;;;;;;;;;;;;;;5006066;28;20012;-59
2022/04/15 00:14:18;;;;;;;;;;;;;;;;;;5010267;28;19924;-60
2022/04/15 00:16:43;;;;;;;;;;;;;;;;;;5009831;28;19910;-60
2022/04/15 00:19:09;;;;;;;;;;;;;;;;;;5013928;28;20206;-60
2022/04/15 00:21:35;;;;;;;;;;;;;;;;;;5008108;28;19936;-60
2022/04/15 00:24:00;;;;;;;;;;;;;;;;;;5010260;28;19923;-58
2022/04/15 00:26:25;;;;;;;;;;;;;;;;;;5013940;28;20310;-60
2022/04/15 00:28:52;;;;;;;;;;;;;;;;;;5006805;28;20008;-60
2022/04/15 00:31:17;;;;;;;;;;;;;;;;;;5015384;28;22078;-59
2022/04/15 00:33:42;;;;;;;;;;;;;;;;;;5009512;28;19917;-61
2022/04/15 00:36:07;;;;;;;;;;;;;;;;;;5006277;28;19916;-61
2022/04/15 00:38:34;;;;;;;;;;;;;;;;;;5012814;28;19972;-61
2022/04/15 00:40:59;;;;;;;;;;;;;;;;;;5008711;28;20368;-61
2022/04/15 00:43:24;;;;;;;;;;;;;;;;;;5016621;28;19956;-61
2022/04/15 00:45:49;;;;;;;;;;;;;;;;;;5038284;28;19913;-62
2022/04/15 00:48:16;;;;;;;;;;;;;;;;;;5007845;28;19913;-61
2022/04/15 00:50:42;;;;;;;;;;;;;;;;;;5011627;28;19917;-61
2022/04/15 00:53:07;;;;;;;;;;;;;;;;;;5008649;28;20320;-61
2022/04/15 00:55:32;;;;;;;;;;;;;;;;;;5012200;28;19963;-62
2022/04/15 00:57:57;;;;;;;;;;;;;;;;;;5010540;28;19924;-59
2022/04/15 01:00:23;;;;;;;;;;;;;;;;;;5013022;28;19921;-59
2022/04/15 01:02:48;;;;;;;;;;;;;;;;;;5009203;28;19913;-61
2022/04/15 01:05:13;;;;;;;;;;;;;;;;;;5038279;28;19919;-60
2022/04/15 01:07:38;;;;;;;;;;;;;;;;;;5012199;28;20000;-59
2022/04/15 01:10:04;;;;;;;;;;;;;;;;;;5013732;28;20410;-61
2022/04/15 01:12:29;;;;;;;;;;;;;;;;;;5009706;28;20366;-61
2022/04/15 01:14:54;;;;;;;;;;;;;;;;;;5014883;28;20215;-60
2022/04/15 01:17:20;;;;;;;;;;;;;;;;;;5008218;28;19917;-59
2022/04/15 01:19:45;;;;;;;;;;;;;;;;;;5018475;28;20259;-60
2022/04/15 01:22:10;;;;;;;;;;;;;;;;;;5013444;28;19913;-60
2022/04/15 01:24:38;;;;;;;;;;;;;;;;;;5010891;28;19992;-60
2022/04/15 01:27:03;;;;;;;;;;;;;;;;;;5016120;28;19943;-62
2022/04/15 01:29:29;;;;;;;;;;;;;;;;;;5013556;28;20476;-60
2022/04/15 01:31:54;;;;;;;;;;;;;;;;;;5017668;28;20028;-58
2022/04/15 01:34:19;;;;;;;;;;;;;;;;;;5011569;28;19914;-58
2022/04/15 01:36:44;;;;;;;;;;;;;;;;;;5007822;28;19947;-60
2022/04/15 01:39:10;;;;;;;;;;;;;;;;;;5015361;28;20028;-60
2022/04/15 01:41:35;;;;;;;;;;;;;;;;;;5011104;28;20245;-59
2022/04/15 01:44:01;;;;;;;;;;;;;;;;;;5014765;28;19918;-60
2022/04/15 01:46:26;;;;;;;;;;;;;;;;;;5008477;28;19913;-62
2022/04/15 01:48:51;;;;;;;;;;;;;;;;;;5010743;28;20338;-60
2022/04/15 01:51:16;;;;;;;;;;;;;;;;;;5018613;28;20269;-60
2022/04/15 01:53:41;;;;;;;;;;;;;;;;;;5012492;28;20330;-59
2022/04/15 01:56:07;;;;;;;;;;;;;;;;;;5016749;28;19913;-61
2022/04/15 01:58:32;;;;;;;;;;;;;;;;;;5011871;28;19913;-60
2022/04/15 02:00:58;;;;;;;;;;;;;;;;;;5019697;28;20360;-60
2022/04/15 02:03:23;;;;;;;;;;;;;;;;;;5017444;28;19917;-60
2022/04/15 02:05:48;;;;;;;;;;;;;;;;;;5020936;28;20488;-59
2022/04/15 02:08:14;;;;;;;;;;;;;;;;;;5015377;28;19921;-60
2022/04/15 02:10:41;;;;;;;;;;;;;;;;;;5014299;28;19913;-60
2022/04/15 02:13:06;;;;;;;;;;;;;;;;;;5008990;28;20397;-60
2022/04/15 02:15:32;;;;;;;;;;;;;;;;;;5046868;28;20408;-60
2022/04/15 02:17:58;;;;;;;;;;;;;;;;;;5008560;28;19932;-60
2022/04/15 02:20:23;;;;;;;;;;;;;;;;;;5015749;28;20257;-60
2022/04/15 02:22:50;;;;;;;;;;;;;;;;;;5011896;28;20056;-61
2022/04/15 02:25:15;;;;;;;;;;;;;;;;;;5011473;28;20008;-60
2022/04/15 02:27:43;;;;;;;;;;;;;;;;;;5021585;28;19935;-60
2022/04/15 02:30:09;;;;;;;;;;;;;;;;;;5011192;28;19924;-60
2022/04/15 02:32:34;;;;;;;;;;;;;;;;;;5015011;28;19913;-60
2022/04/15 02:34:59;;;;;;;;;;;;;;;;;;5010394;28;20754;-59
2022/04/15 02:37:24;;;;;;;;;;;;;;;;;;5012809;28;20373;-60
2022/04/15 02:39:50;;;;;;;;;;;;;;;;;;5016150;28;19933;-60
2022/04/15 02:42:15;;;;;;;;;;;;;;;;;;5009567;28;19925;-59
2022/04/15 02:44:40;;;;;;;;;;;;;;;;;;5018963;28;20381;-60
2022/04/15 02:47:05;;;;;;;;;;;;;;;;;;5008526;28;19924;-58
2022/04/15 02:49:31;;;;;;;;;;;;;;;;;;5010986;28;19956;-60
2022/04/15 02:51:56;;;;;;;;;;;;;;;;;;5047888;28;19918;-60
2022/04/15 02:54:21;;;;;;;;;;;;;;;;;;5011291;28;19913;-60
2022/04/15 02:56:46;;;;;;;;;;;;;;;;;;5016929;28;19924;-60
2022/04/15 02:59:12;;;;;;;;;;;;;;;;;;5006107;28;20004;-60
2022/04/15 03:01:37;;;;;;;;;;;;;;;;;;5010063;28;19910;-60
2022/04/15 03:04:02;;;;;;;;;;;;;;;;;;5013696;28;20331;-60
2022/04/15 03:06:27;;;;;;;;;;;;;;;;;;5009649;28;20251;-60
2022/04/15 03:08:54;;;;;;;;;;;;;;;;;;5014265;28;20437;-60
2022/04/15 03:11:19;;;;;;;;;;;;;;;;;;5008602;28;19940;-60
2022/04/15 03:13:44;;;;;;;;;;;;;;;;;;5009684;28;20280;-59
2022/04/15 03:16:10;;;;;;;;;;;;;;;;;;5012400;28;19920;-60
2022/04/15 03:18:36;;;;;;;;;;;;;;;;;;5009177;28;19921;-59
2022/04/15 03:21:02;;;;;;;;;;;;;;;;;;5014292;28;20042;-58
2022/04/15 03:23:27;;;;;;;;;;;;;;;;;;5009037;28;20027;-61
2022/04/15 03:25:52;;;;;;;;;;;;;;;;;;5010026;28;20258;-61
2022/04/15 03:28:17;;;;;;;;;;;;;;;;;;5015602;28;20001;-60
2022/04/15 03:30:42;;;;;;;;;;;;;;;;;;5010043;28;19960;-59
2022/04/15 03:33:08;;;;;;;;;;;;;;;;;;5017400;28;19944;-60
2022/04/15 03:35:33;;;;;;;;;;;;;;;;;;5009148;28;19914;-60
2022/04/15 03:37:58;;;;;;;;;;;;;;;;;;5011280;28;20033;-58
2022/04/15 03:40:23;;;;;;;;;;;;;;;;;;5013807;28;19964;-59
2022/04/15 03:42:48;;;;;;;;;;;;;;;;;;5040035;28;19917;-59
2022/04/15 03:45:19;;;;;;;;;;;;;;;;;;5014121;28;19928;-60
2022/04/15 03:47:44;;;;;;;;;;;;;;;;;;5010131;28;19956;-61
2022/04/15 03:50:09;;;;;;;;;;;;;;;;;;5008883;28;20405;-61
2022/04/15 03:52:34;;;;;;;;;;;;;;;;;;5013662;28;20353;-58
2022/04/15 03:54:59;;;;;;;;;;;;;;;;;;5009076;28;19978;-60
2022/04/15 03:57:26;;;;;;;;;;;;;;;;;;5014582;28;19918;-61
2022/04/15 03:59:52;;;;;;;;;;;;;;;;;;5009101;28;20290;-60
2022/04/15 04:02:17;;;;;;;;;;;;;;;;;;5011629;28;19913;-61
2022/04/15 04:04:43;;;;;;;;;;;;;;;;;;5014214;28;19909;-61
2022/04/15 04:07:10;;;;;;;;;;;;;;;;;;5009942;28;19928;-60
2022/04/15 04:09:35;;;;;;;;;;;;;;;;;;5015312;28;19914;-61
2022/04/15 04:12:01;;;;;;;;;;;;;;;;;;5012046;28;19917;-61
2022/04/15 04:14:26;;;;;;;;;;;;;;;;;;5009530;28;19929;-60
2022/04/15 04:16:51;;;;;;;;;;;;;;;;;;5014072;28;20384;-60
2022/04/15 04:19:16;;;;;;;;;;;;;;;;;;5007498;28;19976;-60
2022/04/15 04:21:41;;;;;;;;;;;;;;;;;;5015449;28;20397;-60
2022/04/15 04:24:07;;;;;;;;;;;;;;;;;;5009067;28;20346;-59
2022/04/15 04:26:32;;;;;;;;;;;;;;;;;;5012614;28;19921;-60
2022/04/15 04:28:57;;;;;;;;;;;;;;;;;;5012034;28;20546;-60
2022/04/15 04:31:23;;;;;;;;;;;;;;;;;;5005582;28;19941;-60
2022/04/15 04:33:48;;;;;;;;;;;;;;;;;;5013439;28;19965;-59
2022/04/15 04:36:13;;;;;;;;;;;;;;;;;;5024773;28;20272;-59
2022/04/15 04:38:38;;;;;;;;;;;;;;;;;;5008146;28;20365;-62
2022/04/15 04:41:03;;;;;;;;;;;;;;;;;;5013058;28;19917;-59
2022/04/15 04:43:29;;;;;;;;;;;;;;;;;;5014169;28;19956;-60
2022/04/15 04:45:54;;;;;;;;;;;;;;;;;;5013957;28;19947;-59
2022/04/15 04:48:19;;;;;;;;;;;;;;;;;;5006968;28;20274;-61
2022/04/15 04:50:46;;;;;;;;;;;;;;;;;;5005055;28;19917;-60
2022/04/15 04:53:11;;;;;;;;;;;;;;;;;;5011824;28;19920;-59
2022/04/15 04:55:36;;;;;;;;;;;;;;;;;;5009778;28;19913;-61
2022/04/15 04:58:01;;;;;;;;;;;;;;;;;;5017040;28;19914;-59
2022/04/15 05:00:26;;;;;;;;;;;;;;;;;;5007921;28;19921;-59
2022/04/15 05:02:52;;;;;;;;;;;;;;;;;;5012813;28;20003;-59
2022/04/15 05:05:17;;;;;;;;;;;;;;;;;;5010731;28;20369;-60
2022/04/15 05:07:42;;;;;;;;;;;;;;;;;;5007172;28;19918;-60
2022/04/15 05:10:07;;;;;;;;;;;;;;;;;;5015161;28;20035;-59
2022/04/15 05:12:33;;;;;;;;;;;;;;;;;;5003882;28;19909;-59
2022/04/15 05:14:58;;;;;;;;;;;;;;;;;;5007200;28;19915;-59
2022/04/15 05:17:23;;;;;;;;;;;;;;;;;;5013924;28;19913;-58
2022/04/15 05:19:48;;;;;;;;;;;;;;;;;;5038249;28;19922;-59
2022/04/15 05:22:14;;;;;;;;;;;;;;;;;;5009411;28;19914;-59
2022/04/15 05:24:39;;;;;;;;;;;;;;;;;;5037446;28;19917;-59
2022/04/15 05:27:04;;;;;;;;;;;;;;;;;;5011654;28;19917;-61
2022/04/15 05:29:29;;;;;;;;;;;;;;;;;;5012263;28;20955;-59
2022/04/15 05:31:54;;;;;;;;;;;;;;;;;;5005880;28;19924;-61
2022/04/15 05:34:20;;;;;;;;;;;;;;;;;;5015273;28;19916;-61
2022/04/15 05:36:45;;;;;;;;;;;;;;;;;;5008803;28;19913;-59
2022/04/15 05:39:10;;;;;;;;;;;;;;;;;;5011866;28;19937;-59
2022/04/15 05:41:35;;;;;;;;;;;;;;;;;;5028400;28;19910;-62
2022/04/15 05:44:03;;;;;;;;;;;;;;;;;;5005929;28;19913;-59
2022/04/15 05:46:29;;;;;;;;;;;;;;;;;;5013853;28;20254;-60
2022/04/15 05:48:54;;;;;;;;;;;;;;;;;;5008340;28;19914;-60
2022/04/15 05:51:19;;;;;;;;;;;;;;;;;;5008197;28;19963;-61
2022/04/15 05:53:44;;;;;;;;;;;;;;;;;;5018698;28;20011;-61
2022/04/15 05:56:09;;;;;;;;;;;;;;;;;;5006719;28;20005;-59
2022/04/15 05:58:35;;;;;;;;;;;;;;;;;;5013455;28;19909;-60
2022/04/15 06:01:00;;;;;;;;;;;;;;;;;;5007380;28;19914;-60
2022/04/15 06:03:25;;;;;;;;;;;;;;;;;;5013033;28;20005;-59
2022/04/15 06:05:51;;;;;;;;;;;;;;;;;;5019316;28;19913;-60
2022/04/15 06:08:16;;;;;;;;;;;;;;;;;;5011361;28;20430;-59
2022/04/15 06:10:41;;;;;;;;;;;;;;;;;;5016312;28;20166;-60
2022/04/15 06:13:10;;;;;;;;;;;;;;;;;;5013194;28;19917;-59
2022/04/15 06:15:41;;;;;;;;;;;;;;;;;;5010065;28;19918;-60
2022/04/15 06:18:06;;;;;;;;;;;;;;;;;;5013788;28;19917;-60
2022/04/15 06:20:31;;;;;;;;;;;;;;;;;;5012704;28;19947;-60
2022/04/15 06:22:56;;;;;;;;;;;;;;;;;;5014247;28;19964;-60
2022/04/15 06:25:21;;;;;;;;;;;;;;;;;;5014715;28;19925;-60
2022/04/15 06:27:47;;;;;;;;;;;;;;;;;;5008440;28;20463;-61
2022/04/15 06:30:12;;;;;;;;;;;;;;;;;;5013281;28;20357;-61
2022/04/15 06:32:37;;;;;;;;;;;;;;;;;;5011608;28;20336;-61
2022/04/15 06:35:02;;;;;;;;;;;;;;;;;;5013487;28;19913;-61
2022/04/15 06:37:28;;;;;;;;;;;;;;;;;;5015099;28;20158;-61
2022/04/15 06:39:53;;;;;;;;;;;;;;;;;;5008101;28;19979;-61
2022/04/15 06:42:18;;;;;;;;;;;;;;;;;;5016524;28;20314;-60
2022/04/15 06:44:44;;;;;;;;;;;;;;;;;;5024744;28;20267;-61
2022/04/15 06:47:09;;;;;;;;;;;;;;;;;;5009793;28;20371;-61
2022/04/15 06:49:34;;;;;;;;;;;;;;;;;;5016389;28;19975;-61
2022/04/15 06:51:59;;;;;;;;;;;;;;;;;;5039035;28;20358;-60
2022/04/15 06:54:25;;;;;;;;;;;;;;;;;;5017295;28;20260;-60
2022/04/15 06:56:50;;;;;;;;;;;;;;;;;;5007379;28;20637;-59
2022/04/15 06:59:15;;;;;;;;;;;;;;;;;;5014427;28;20325;-60
2022/04/15 07:01:42;;;;;;;;;;;;;;;;;;5038930;28;19915;-60
2022/04/15 07:04:08;;;;;;;;;;;;;;;;;;5007769;28;19917;-60
2022/04/15 07:06:33;;;;;;;;;;;;;;;;;;5015911;28;20315;-59
2022/04/15 07:08:58;;;;;;;;;;;;;;;;;;5007516;28;20321;-60
2022/04/15 07:11:24;;;;;;;;;;;;;;;;;;5010439;28;19975;-60
2022/04/15 07:13:49;;;;;;;;;;;;;;;;;;5015424;28;19991;-61
2022/04/15 07:16:14;;;;;;;;;;;;;;;;;;5008222;28;20439;-61
2022/04/15 07:18:39;;;;;;;;;;;;;;;;;;5012261;28;19913;-62
2022/04/15 07:21:05;;;;;;;;;;;;;;;;;;5007070;28;20304;-60
2022/04/15 07:23:30;;;;;;;;;;;;;;;;;;4999884;28;19971;-60
2022/04/15 07:25:55;;;;;;;;;;;;;;;;;;5016795;28;19932;-60
2022/04/15 07:28:20;;;;;;;;;;;;;;;;;;5009068;28;19913;-60
2022/04/15 07:30:46;;;;;;;;;;;;;;;;;;5014800;28;20032;-60
2022/04/15 07:33:11;;;;;;;;;;;;;;;;;;5011216;28;20026;-60
2022/04/15 07:35:36;;;;;;;;;;;;;;;;;;5006732;28;20059;-63
2022/04/15 07:38:01;;;;;;;;;;;;;;;;;;5016935;28;19918;-61
2022/04/15 07:40:29;;;;;;;;;;;;;;;;;;5015525;28;19917;-61
2022/04/15 07:42:54;;;;;;;;;;;;;;;;;;5016620;28;19917;-61
2022/04/15 07:45:20;;;;;;;;;;;;;;;;;;5010623;28;19928;-61
2022/04/15 07:47:47;;;;;;;;;;;;;;;;;;5006745;28;19943;-62
2022/04/15 07:50:13;;;;;;;;;;;;;;;;;;5013910;28;19936;-62
2022/04/15 07:52:38;;;;;;;;;;;;;;;;;;5010958;28;20256;-61
2022/04/15 07:55:03;;;;;;;;;;;;;;;;;;5013214;28;20429;-61
2022/04/15 07:57:30;;;;;;;;;;;;;;;;;;5007146;28;20095;-59
2022/04/15 07:59:55;;;;;;;;;;;;;;;;;;5009860;28;20393;-61
2022/04/15 08:02:20;;;;;;;;;;;;;;;;;;5019177;28;20417;-62
2022/04/15 08:04:45;;;;;;;;;;;;;;;;;;5008859;28;20542;-61
2022/04/15 08:07:10;;;;;;;;;;;;;;;;;;5020735;28;19955;-61
2022/04/15 08:09:38;;;;;;;;;;;;;;;;;;5008195;28;20362;-61
2022/04/15 08:12:04;;;;;;;;;;;;;;;;;;5006075;28;19925;-60
2022/04/15 08:14:29;;;;;;;;;;;;;;;;;;5010777;28;20813;-61
2022/04/15 08:16:54;;;;;;;;;;;;;;;;;;5037286;28;19913;-60
2022/04/15 08:19:20;;;;;;;;;;;;;;;;;;5012360;28;20640;-61
2022/04/15 08:21:45;;;;;;;;;;;;;;;;;;5005302;28;19918;-61
2022/04/15 08:24:10;;;;;;;;;;;;;;;;;;5007057;28;19965;-61
2022/04/15 08:26:35;;;;;;;;;;;;;;;;;;5011113;28;19964;-61
2022/04/15 08:29:01;;;;;;;;;;;;;;;;;;5007442;28;20312;-61
2022/04/15 08:31:26;;;;;;;;;;;;;;;;;;5018764;28;19917;-60
2022/04/15 08:33:51;;;;;;;;;;;;;;;;;;5010777;28;20400;-61
2022/04/15 08:36:16;;;;;;;;;;;;;;;;;;5009908;28;20697;-60
2022/04/15 08:38:41;;;;;;;;;;;;;;;;;;5016197;28;19913;-60
2022/04/15 08:41:07;;;;;;;;;;;;;;;;;;5006506;28;19963;-61
2022/04/15 08:43:32;;;;;;;;;;;;;;;;;;5012119;28;19913;-61
2022/04/15 08:45:57;;;;;;;;;;;;;;;;;;5006468;28;20322;-61
2022/04/15 08:48:23;;;;;;;;;;;;;;;;;;5013931;28;20330;-62
2022/04/15 08:50:48;;;;;;;;;;;;;;;;;;5010069;28;19949;-61
2022/04/15 08:53:13;;;;;;;;;;;;;;;;;;5006697;28;19925;-61
2022/04/15 08:55:38;;;;;;;;;;;;;;;;;;5015035;28;20079;-61
2022/04/15 08:58:04;;;;;;;;;;;;;;;;;;5005031;28;19920;-61
2022/04/15 09:00:29;;;;;;;;;;;;;;;;;;5014461;28;20843;-61
2022/04/15 09:02:54;;;;;;;;;;;;;;;;;;5013420;28;19918;-62
2022/04/15 09:05:19;;;;;;;;;;;;;;;;;;5009372;28;20254;-61
2022/04/15 09:07:45;;;;;;;;;;;;;;;;;;5009741;28;20360;-61
2022/04/15 09:10:11;;;;;;;;;;;;;;;;;;5009929;28;19968;-61
2022/04/15 09:12:37;;;;;;;;;;;;;;;;;;5006415;28;20650;-61
2022/04/15 09:15:03;;;;;;;;;;;;;;;;;;5017628;28;19913;-61
2022/04/15 09:17:28;;;;;;;;;;;;;;;;;;5008553;28;19913;-61
2022/04/15 09:19:54;;;;;;;;;;;;;;;;;;5043293;28;20012;-62
2022/04/15 09:22:19;;;;;;;;;;;;;;;;;;5004900;28;20231;-62
2022/04/15 09:24:44;;;;;;;;;;;;;;;;;;5008522;28;19956;-61
2022/04/15 09:27:09;;;;;;;;;;;;;;;;;;5018350;28;19924;-61
2022/04/15 09:29:35;;;;;;;;;;;;;;;;;;5007468;28;19916;-61
2022/04/15 09:32:00;;;;;;;;;;;;;;;;;;5010217;28;19914;-61
2022/04/15 09:34:28;;;;;;;;;;;;;;;;;;5006010;28;20477;-61
2022/04/15 09:36:53;;;;;;;;;;;;;;;;;;5007267;28;19918;-63
2022/04/15 09:39:18;;;;;;;;;;;;;;;;;;5018164;28;19921;-61
2022/04/15 09:41:44;;;;;;;;;;;;;;;;;;5010367;28;19921;-61
2022/04/15 09:44:09;;;;;;;;;;;;;;;;;;5016749;28;20390;-61
2022/04/15 09:46:34;;;;;;;;;;;;;;;;;;5014841;28;19921;-61
2022/04/15 09:49:02;;;;;;;;;;;;;;;;;;5010957;28;19913;-61
2022/04/15 09:51:27;;;;;;;;;;;;;;;;;;5012189;28;19970;-61
2022/04/15 09:53:55;;;;;;;;;;;;;;;;;;5015899;28;19925;-61
2022/04/15 09:56:20;;;;;;;;;;;;;;;;;;5016767;28;19923;-61
2022/04/15 09:58:45;;;;;;;;;;;;;;;;;;5006402;28;19910;-61
2022/04/15 10:01:11;;;;;;;;;;;;;;;;;;5007979;28;19924;-61
2022/04/15 10:03:36;;;;;;;;;;;;;;;;;;5016669;28;20262;-61
2022/04/15 10:06:01;;;;;;;;;;;;;;;;;;5006879;28;20468;-61
2022/04/15 10:08:26;;;;;;;;;;;;;;;;;;5012195;28;19913;-61
2022/04/15 10:10:52;;;;;;;;;;;;;;;;;;5009456;28;19909;-62
2022/04/15 10:13:17;;;;;;;;;;;;;;;;;;5004912;28;20020;-62
2022/04/15 10:15:42;;;;;;;;;;;;;;;;;;5016992;28;19970;-62
2022/04/15 10:18:08;;;;;;;;;;;;;;;;;;5010257;28;19913;-62
2022/04/15 10:20:33;;;;;;;;;;;;;;;;;;5015277;28;19933;-62
2022/04/15 10:22:58;;;;;;;;;;;;;;;;;;5013673;28;19920;-62
2022/04/15 10:25:23;;;;;;;;;;;;;;;;;;5008251;28;19921;-62
2022/04/15 10:27:49;;;;;;;;;;;;;;;;;;5014560;28;20670;-62
2022/04/15 10:30:14;;;;;;;;;;;;;;;;;;5008288;28;19909;-62
2022/04/15 10:32:39;;;;;;;;;;;;;;;;;;5019176;28;19909;-63
2022/04/15 10:35:04;;;;;;;;;;;;;;;;;;5014226;28;19913;-62
2022/04/15 10:37:30;;;;;;;;;;;;;;;;;;5006633;28;19929;-62
2022/04/15 10:39:55;;;;;;;;;;;;;;;;;;5018720;28;19971;-62
2022/04/15 10:42:22;;;;;;;;;;;;;;;;;;5011797;28;20333;-62
2022/04/15 10:44:47;;;;;;;;;;;;;;;;;;5018672;28;19916;-62
2022/04/15 10:47:13;;;;;;;;;;;;;;;;;;5012584;28;19917;-62
2022/04/15 10:49:38;;;;;;;;;;;;;;;;;;5008519;28;20009;-62
2022/04/15 10:52:03;;;;;;;;;;;;;;;;;;5015476;28;20318;-62
2022/04/15 10:54:28;;;;;;;;;;;;;;;;;;5008500;28;19964;-62
2022/04/15 10:56:53;;;;;;;;;;;;;;;;;;5014994;28;19933;-62
2022/04/15 11:02:10;;;;;;;;;;;;;;;;;;5003123;28;19956;-62
2022/04/15 11:04:36;;;;;;;;;;;;;;;;;;5015422;28;20381;-62
2022/04/15 11:07:01;;;;;;;;;;;;;;;;;;5008891;28;19935;-62
2022/04/15 11:09:26;;;;;;;;;;;;;;;;;;5008944;28;19921;-63
2022/04/15 11:11:53;;;;;;;;;;;;;;;;;;5014660;28;19963;-61
2022/04/15 11:14:18;;;;;;;;;;;;;;;;;;5008010;28;19917;-62
2022/04/15 11:16:43;;;;;;;;;;;;;;;;;;5021192;28;20590;-62
2022/04/15 11:19:11;;;;;;;;;;;;;;;;;;5009073;28;19921;-61
2022/04/15 11:21:37;;;;;;;;;;;;;;;;;;5040240;28;19921;-61
2022/04/15 11:24:03;;;;;;;;;;;;;;;;;;5019516;28;19924;-62
2022/04/15 11:26:28;;;;;;;;;;;;;;;;;;5009756;28;19917;-62
2022/04/15 11:28:53;;;;;;;;;;;;;;;;;;5012595;28;19944;-61
2022/04/15 11:31:18;;;;;;;;;;;;;;;;;;5038888;28;19917;-61
2022/04/15 11:33:43;;;;;;;;;;;;;;;;;;5008042;28;19929;-61
2022/04/15 11:36:09;;;;;;;;;;;;;;;;;;5012998;28;19999;-63
2022/04/15 11:38:34;;;;;;;;;;;;;;;;;;5008290;28;20814;-63
2022/04/15 11:40:59;;;;;;;;;;;;;;;;;;5013873;28;19928;-63
2022/04/15 11:43:24;;;;;;;;;;;;;;;;;;5009699;28;19917;-62
2022/04/15 11:45:50;;;;;;;;;;;;;;;;;;5008185;28;19940;-62
2022/04/15 11:48:15;;;;;;;;;;;;;;;;;;5013221;28;19914;-62
2022/04/15 11:50:40;;;;;;;;;;;;;;;;;;5008788;28;19920;-61
2022/04/15 11:53:05;;;;;;;;;;;;;;;;;;5014073;28;19917;-62
2022/04/15 11:55:31;;;;;;;;;;;;;;;;;;5009446;28;19914;-63
2022/04/15 11:57:56;;;;;;;;;;;;;;;;;;5004665;28;19953;-62
2022/04/15 12:00:21;;;;;;;;;;;;;;;;;;5012497;28;19922;-63
2022/04/15 12:02:46;;;;;;;;;;;;;;;;;;5014437;28;19964;-63
2022/04/15 12:05:12;;;;;;;;;;;;;;;;;;5015682;28;19913;-62
2022/04/15 12:07:37;;;;;;;;;;;;;;;;;;5006402;28;19920;-63
2022/04/15 12:10:04;;;;;;;;;;;;;;;;;;5013705;28;20068;-62
2022/04/15 12:12:29;;;;;;;;;;;;;;;;;;5017656;28;19913;-62
2022/04/15 12:14:54;;;;;;;;;;;;;;;;;;5008910;28;19906;-62
2022/04/15 12:17:19;;;;;;;;;;;;;;;;;;5013842;28;19909;-63
2022/04/15 12:19:45;;;;;;;;;;;;;;;;;;5010247;28;20324;-62
2022/04/15 12:22:10;;;;;;;;;;;;;;;;;;5013206;28;19909;-63
2022/04/15 12:24:35;;;;;;;;;;;;;;;;;;5015507;28;20059;-62
2022/04/15 12:27:00;;;;;;;;;;;;;;;;;;5008615;28;20352;-63
2022/04/15 12:32:09;;;;;;;;;;;;;;;;;;5007270;28;20004;-65
2022/04/15 12:34:35;;;;;;;;;;;;;;;;;;5007460;28;19917;-62
2022/04/15 12:37:00;;;;;;;;;;;;;;;;;;5013820;28;19986;-63
2022/04/15 12:39:25;;;;;;;;;;;;;;;;;;5038073;28;20008;-61
2022/04/15 12:41:51;;;;;;;;;;;;;;;;;;5013353;28;19924;-63
2022/04/15 12:44:16;;;;;;;;;;;;;;;;;;5007289;28;19914;-62
2022/04/15 12:46:43;;;;;;;;;;;;;;;;;;5005725;28;19909;-62
2022/04/15 12:49:08;;;;;;;;;;;;;;;;;;5017095;28;19921;-62
2022/04/15 12:51:33;;;;;;;;;;;;;;;;;;5007011;28;19925;-62
2022/04/15 12:53:58;;;;;;;;;;;;;;;;;;5013632;28;19918;-63
2022/04/15 12:56:24;;;;;;;;;;;;;;;;;;5004760;28;20158;-62
2022/04/15 12:58:49;;;;;;;;;;;;;;;;;;5008281;28;19971;-63
2022/04/15 13:01:14;;;;;;;;;;;;;;;;;;5006388;28;20303;-63
2022/04/15 13:03:39;;;;;;;;;;;;;;;;;;4999932;28;20021;-64
2022/04/15 13:06:05;;;;;;;;;;;;;;;;;;5017120;28;19924;-62
2022/04/15 13:08:31;;;;;;;;;;;;;;;;;;4996269;28;19925;-62
2022/04/15 13:10:56;;;;;;;;;;;;;;;;;;4988056;28;19921;-62
2022/04/15 13:13:21;;;;;;;;;;;;;;;;;;5003306;28;20437;-62
2022/04/15 13:15:49;;;;;;;;;;;;;;;;;;5005661;28;19914;-62
2022/04/15 13:18:15;;;;;;;;;;;;;;;;;;5016280;28;20011;-63
2022/04/15 13:20:41;;;;;;;;;;;;;;;;;;5010238;28;19928;-62
2022/04/15 13:23:06;;;;;;;;;;;;;;;;;;5008234;28;19914;-63
2022/04/15 13:25:31;;;;;;;;;;;;;;;;;;5035034;28;19914;-63
2022/04/15 13:27:56;;;;;;;;;;;;;;;;;;5009712;28;19999;-62
2022/04/15 13:30:22;;;;;;;;;;;;;;;;;;5014065;28;19913;-62
2022/04/15 13:32:47;;;;;;;;;;;;;;;;;;5012876;28;19913;-63
2022/04/15 13:35:12;;;;;;;;;;;;;;;;;;5013216;28;19914;-63
2022/04/15 13:37:39;;;;;;;;;;;;;;;;;;5012550;28;19949;-64
2022/04/15 13:40:04;;;;;;;;;;;;;;;;;;5012816;28;20337;-63
2022/04/15 13:42:29;;;;;;;;;;;;;;;;;;5014156;28;20370;-65
2022/04/15 13:44:55;;;;;;;;;;;;;;;;;;5009947;28;20000;-64
2022/04/15 13:47:20;;;;;;;;;;;;;;;;;;5014013;28;19918;-63
2022/04/15 13:49:48;;;;;;;;;;;;;;;;;;5017153;28;20354;-64
2022/04/15 13:57:41;;;;;;;;;;;;;;;;;;5019815;28;19913;-63
2022/04/15 14:00:06;;;;;;;;;;;;;;;;;;5010584;28;19925;-63
2022/04/15 14:02:32;;;;;;;;;;;;;;;;;;5020089;28;19924;-63
2022/04/15 14:04:58;;;;;;;;;;;;;;;;;;5013776;28;19909;-63
2022/04/15 14:07:23;;;;;;;;;;;;;;;;;;5016673;28;19921;-63
2022/04/15 14:09:49;;;;;;;;;;;;;;;;;;5015597;28;19917;-63
2022/04/15 14:12:14;;;;;;;;;;;;;;;;;;5011041;28;19917;-63
2022/04/15 14:14:39;;;;;;;;;;;;;;;;;;5016610;28;20262;-63
2022/04/15 14:17:05;;;;;;;;;;;;;;;;;;5009469;28;21165;-64
2022/04/15 14:19:30;;;;;;;;;;;;;;;;;;5010440;28;19932;-64
2022/04/15 14:21:55;;;;;;;;;;;;;;;;;;5013948;28;20441;-62
2022/04/15 14:24:21;;;;;;;;;;;;;;;;;;5011354;28;20259;-63
2022/04/15 14:26:47;;;;;;;;;;;;;;;;;;5017696;28;19952;-63
2022/04/15 14:29:12;;;;;;;;;;;;;;;;;;5011996;28;19919;-63
2022/04/15 14:31:37;;;;;;;;;;;;;;;;;;5007698;28;20285;-64
2022/04/15 14:34:02;;;;;;;;;;;;;;;;;;5015849;28;20000;-64
2022/04/15 14:36:27;;;;;;;;;;;;;;;;;;5006458;28;19913;-64
2022/04/15 14:38:53;;;;;;;;;;;;;;;;;;5047321;28;19917;-62
2022/04/15 14:41:18;;;;;;;;;;;;;;;;;;5010645;28;20401;-64
2022/04/15 14:43:43;;;;;;;;;;;;;;;;;;5010365;28;20032;-63
2022/04/15 14:46:08;;;;;;;;;;;;;;;;;;5017013;28;19952;-63
2022/04/15 14:48:34;;;;;;;;;;;;;;;;;;5010154;28;20342;-63
2022/04/15 14:50:59;;;;;;;;;;;;;;;;;;5017067;28;19956;-63
2022/04/15 14:53:25;;;;;;;;;;;;;;;;;;5011376;28;20352;-64
2022/04/15 14:55:50;;;;;;;;;;;;;;;;;;5009298;28;19914;-63
2022/04/15 14:58:16;;;;;;;;;;;;;;;;;;5033038;28;19917;-64
2022/04/15 15:00:41;;;;;;;;;;;;;;;;;;5043664;28;19980;-61
2022/04/15 15:03:07;;;;;;;;;;;;;;;;;;5018241;28;19914;-62
2022/04/15 15:05:32;;;;;;;;;;;;;;;;;;5010319;28;19972;-62
2022/04/15 15:07:57;;;;;;;;;;;;;;;;;;5006763;28;20534;-62
2022/04/15 15:10:22;;;;;;;;;;;;;;;;;;5014386;28;19921;-62
2022/04/15 15:12:49;;;;;;;;;;;;;;;;;;5010704;28;19914;-61
2022/04/15 15:15:14;;;;;;;;;;;;;;;;;;5047119;28;19913;-63
2022/04/15 15:17:39;;;;;;;;;;;;;;;;;;5009439;28;19919;-64
2022/04/15 15:20:06;;;;;;;;;;;;;;;;;;5014313;28;20317;-62
2022/04/15 15:22:31;;;;;;;;;;;;;;;;;;5000164;28;20011;-62
2022/04/15 15:30:24;;;;;;;;;;;;;;;;;;5014656;28;19920;-63
2022/04/15 15:32:49;;;;;;;;;;;;;;;;;;5011262;28;19913;-63
2022/04/15 15:35:14;;;;;;;;;;;;;;;;;;5013696;28;20036;-64
2022/04/15 15:37:40;;;;;;;;;;;;;;;;;;5008579;28;19955;-63
2022/04/15 15:40:05;;;;;;;;;;;;;;;;;;5011184;28;19929;-63
2022/04/15 15:42:30;;;;;;;;;;;;;;;;;;5013319;28;19914;-63
2022/04/15 15:44:55;;;;;;;;;;;;;;;;;;5039195;28;19952;-63
2022/04/15 15:47:20;;;;;;;;;;;;;;;;;;5015752;28;19909;-63
2022/04/15 15:49:46;;;;;;;;;;;;;;;;;;5020880;28;19967;-62
2022/04/15 15:52:11;;;;;;;;;;;;;;;;;;5009988;28;19920;-62
2022/04/15 15:54:36;;;;;;;;;;;;;;;;;;5011831;28;19921;-62
2022/04/15 15:57:01;;;;;;;;;;;;;;;;;;5011183;28;19913;-62
2022/04/15 15:59:28;;;;;;;;;;;;;;;;;;5013981;28;20005;-62
2022/04/15 16:01:54;;;;;;;;;;;;;;;;;;5009000;28;19941;-62
2022/04/15 16:04:19;;;;;;;;;;;;;;;;;;5010787;28;20273;-62
2022/04/15 16:06:44;;;;;;;;;;;;;;;;;;5014491;28;19921;-63
2022/04/15 16:09:10;;;;;;;;;;;;;;;;;;5011482;28;19941;-64
2022/04/15 16:11:35;;;;;;;;;;;;;;;;;;5010477;28;19925;-63
2022/04/15 16:14:00;;;;;;;;;;;;;;;;;;5005685;28;20224;-62
2022/04/15 16:16:25;;;;;;;;;;;;;;;;;;5006332;28;20163;-62
2022/04/15 16:18:50;;;;;;;;;;;;;;;;;;5010465;28;19941;-64
2022/04/15 16:21:16;;;;;;;;;;;;;;;;;;5008027;28;19931;-63
2022/04/15 16:23:41;;;;;;;;;;;;;;;;;;5013708;28;20007;-62
2022/04/15 16:26:06;;;;;;;;;;;;;;;;;;5000868;28;19909;-63
2022/04/15 16:28:33;;;;;;;;;;;;;;;;;;5035766;28;20283;-63
2022/04/15 16:30:58;;;;;;;;;;;;;;;;;;5007399;28;19913;-63
2022/04/15 16:33:24;;;;;;;;;;;;;;;;;;5004215;28;20360;-62
2022/04/15 16:35:50;;;;;;;;;;;;;;;;;;5006431;28;19917;-62
2022/04/15 16:38:15;;;;;;;;;;;;;;;;;;5006723;28;20421;-62
2022/04/15 16:40:40;;;;;;;;;;;;;;;;;;5002998;28;20063;-62
2022/04/15 16:43:06;;;;;;;;;;;;;;;;;;5015914;28;20248;-63
2022/04/15 16:45:31;;;;;;;;;;;;;;;;;;5009250;28;20484;-63
2022/04/15 16:47:57;;;;;;;;;;;;;;;;;;5036937;28;19913;-63
2022/04/15 16:50:22;;;;;;;;;;;;;;;;;;5002077;28;19917;-63